Time;durP1;ratioP1;P1;durP2;ratioP2;P2;SDS_P1;SDS_P2;PMS_P1;PMS_P2;Temp;Humidity;BMP_temperature;BMP_pressure;BME280_temperature;BME280_humidity;BME280_pressure;Samples;Min_cycle;Max_cycle;Signal;HPM_P1;HPM_P2
2022/07/01 00:00:47;;;;;;;0.45;0.45;;;;;;;18.25;60.57;100940.31;5204454;28;20067;-79
2022/07/01 00:03:18;;;;;;;0.30;0.30;;;;;;;18.28;61.34;100943.72;5178252;28;20120;-79
2022/07/01 00:05:50;;;;;;;0.85;0.75;;;;;;;18.27;59.63;100931.41;5198630;28;20577;-79
2022/07/01 00:08:20;;;;;;;0.75;0.73;;;;;;;18.25;59.93;100929.69;5184149;28;20033;-79
2022/07/01 00:10:51;;;;;;;0.85;0.65;;;;;;;18.20;60.11;100934.41;5201489;28;20033;-78
2022/07/01 00:13:21;;;;;;;0.90;0.50;;;;;;;18.27;60.22;100926.09;5194654;28;20037;-79
2022/07/01 00:15:52;;;;;;;0.55;0.45;;;;;;;18.22;59.68;100916.56;5172013;28;20041;-79
2022/07/01 00:18:23;;;;;;;0.30;0.30;;;;;;;18.21;60.27;100924.63;5217246;28;20036;-78
2022/07/01 00:20:54;;;;;;;0.20;0.20;;;;;;;18.09;61.29;100934.13;5193583;28;20089;-78
2022/07/01 00:23:24;;;;;;;3.75;1.38;;;;;;;18.06;62.18;100940.47;5187663;28;20043;-79
2022/07/01 00:25:55;;;;;;;0.68;0.68;;;;;;;18.07;62.49;100942.19;5198528;28;20491;-79
2022/07/01 00:28:26;;;;;;;0.25;0.25;;;;;;;18.11;61.88;100934.91;5188175;28;20479;-79
2022/07/01 00:30:59;;;;;;;0.95;0.40;;;;;;;18.10;60.21;100935.84;5197502;28;20132;-79
2022/07/01 00:33:30;;;;;;;0.28;0.28;;;;;;;18.11;60.44;100932.25;5186989;28;20084;-79
2022/07/01 00:36:01;;;;;;;0.30;0.30;;;;;;;18.11;60.20;100934.91;5199193;28;20059;-79
2022/07/01 00:38:32;;;;;;;1.00;1.00;;;;;;;18.13;60.46;100930.38;5185798;28;20119;-78
2022/07/01 00:41:03;;;;;;;0.40;0.40;;;;;;;18.05;60.63;100944.06;5182575;28;20032;-78
2022/07/01 00:43:40;;;;;;;0.30;0.30;;;;;;;18.04;61.18;100945.00;5185387;28;20037;-79
2022/07/01 00:46:11;;;;;;;0.40;0.40;;;;;;;18.00;60.88;100953.22;5196561;28;20029;-78
2022/07/01 00:48:43;;;;;;;0.47;0.47;;;;;;;17.96;63.14;100959.66;5189323;28;20048;-78
2022/07/01 00:51:13;;;;;;;0.80;0.80;;;;;;;17.90;63.46;100959.00;5211518;28;20075;-78
2022/07/01 00:53:44;;;;;;;1.38;1.27;;;;;;;17.86;63.17;100968.06;5205707;28;20049;-79
2022/07/01 00:56:15;;;;;;;0.77;0.77;;;;;;;17.87;63.25;100961.84;5202732;28;20041;-78
2022/07/01 00:58:49;;;;;;;0.80;0.50;;;;;;;17.92;61.11;100965.09;5207426;28;20025;-79
2022/07/01 01:01:22;;;;;;;1.02;1.02;;;;;;;17.90;62.22;100979.38;5183624;28;20053;-78
2022/07/01 01:03:53;;;;;;;;;;;;;;;17.93;62.02;100976.56;5195352;28;20041;-79
2022/07/01 01:06:24;;;;;;;0.30;0.30;;;;;;;17.91;61.27;100979.28;5191405;28;19939;-79
2022/07/01 01:08:54;;;;;;;0.57;0.57;;;;;;;17.69;63.55;100982.22;5187917;28;20456;-79
2022/07/01 01:11:26;;;;;;;5.45;1.80;;;;;;;17.79;62.40;100977.31;5181191;28;20120;-78
2022/07/01 01:13:56;;;;;;;0.77;0.77;;;;;;;17.68;64.54;100982.31;5203264;28;20500;-78
2022/07/01 01:16:27;;;;;;;1.67;0.95;;;;;;;17.77;61.79;100992.44;5194650;28;20043;-79
2022/07/01 01:18:57;;;;;;;0.85;0.85;;;;;;;17.71;62.79;100995.44;5188593;28;20337;-79
2022/07/01 01:21:28;;;;;;;0.60;0.60;;;;;;;17.68;63.14;100985.84;5184909;28;20397;-79
2022/07/01 01:23:59;;;;;;;1.17;1.10;;;;;;;17.76;61.48;100990.72;5199594;28;20116;-78
2022/07/01 01:26:29;;;;;;;1.75;1.55;;;;;;;17.75;61.74;100989.88;5179838;28;20091;-79
2022/07/01 01:29:00;;;;;;;0.57;0.57;;;;;;;17.77;61.52;100993.28;5177875;28;20440;-79
2022/07/01 01:31:35;;;;;;;0.68;0.65;;;;;;;17.75;62.51;100991.66;5181573;28;20420;-79
2022/07/01 01:34:06;;;;;;;0.60;0.60;;;;;;;17.69;62.96;100992.84;5199367;28;20021;-80
2022/07/01 01:36:36;;;;;;;1.05;0.88;;;;;;;17.53;62.89;101000.75;5182378;28;20716;-78
2022/07/01 01:39:16;;;;;;;23.35;1.95;;;;;;;17.57;62.29;101006.75;5200086;28;20033;-78
2022/07/01 01:41:47;;;;;;;3.83;1.35;;;;;;;17.45;62.32;100997.66;5181827;28;20033;-79
2022/07/01 01:44:18;;;;;;;0.60;0.60;;;;;;;17.51;61.33;101002.63;5178722;28;20615;-78
2022/07/01 01:46:49;;;;;;;1.48;0.68;;;;;;;17.55;61.04;100993.59;5197076;28;20079;-78
2022/07/01 01:49:19;;;;;;;0.57;0.57;;;;;;;17.56;60.58;100997.94;5198586;28;20029;-78
2022/07/01 01:51:50;;;;;;;1.10;0.98;;;;;;;17.58;60.69;100995.22;5183577;28;20069;-78
2022/07/01 01:54:21;;;;;;;0.95;0.95;;;;;;;17.55;61.76;100998.91;5185817;28;20033;-79
2022/07/01 01:56:52;;;;;;;1.08;1.02;;;;;;;17.54;60.73;101002.47;5195051;28;20672;-79
2022/07/01 01:59:23;;;;;;;0.50;0.50;;;;;;;17.55;60.20;101004.19;5183350;28;20124;-79
2022/07/01 02:01:53;;;;;;;0.68;0.68;;;;;;;17.53;60.36;101016.69;5181199;28;20420;-79
2022/07/01 02:04:24;;;;;;;0.63;0.52;;;;;;;17.56;60.18;101021.81;5198892;28;20033;-79
2022/07/01 02:06:55;;;;;;;0.45;0.45;;;;;;;17.57;61.04;101031.50;5216308;28;20055;-79
2022/07/01 02:09:26;;;;;;;1.35;1.23;;;;;;;17.57;61.34;101017.38;5183476;28;20036;-78
2022/07/01 02:11:56;;;;;;;1.02;1.02;;;;;;;17.57;61.86;101028.00;5172809;28;20143;-79
2022/07/01 02:14:27;;;;;;;1.80;0.88;;;;;;;17.50;62.01;101019.47;5204977;28;20120;-78
2022/07/01 02:17:01;;;;;;;0.75;0.43;;;;;;;17.27;64.28;101016.22;5192907;28;20052;-78
2022/07/01 02:19:31;;;;;;;3.63;1.25;;;;;;;17.16;65.52;101023.84;5206149;28;20068;-78
2022/07/01 02:22:02;;;;;;;0.90;0.90;;;;;;;17.27;62.94;101031.28;5201982;28;20033;-78
2022/07/01 02:24:32;;;;;;;0.43;0.43;;;;;;;17.34;62.55;101037.13;5203801;28;20025;-78
2022/07/01 02:27:04;;;;;;;1.33;1.23;;;;;;;17.26;64.58;101046.31;5192200;28;20151;-79
2022/07/01 02:29:41;;;;;;;0.30;0.30;;;;;;;17.08;65.62;101031.31;5185941;28;20033;-79
2022/07/01 02:32:12;;;;;;;0.40;0.40;;;;;;;16.87;66.70;101034.06;5184406;28;20049;-78
2022/07/01 02:34:42;;;;;;;0.45;0.45;;;;;;;17.01;65.31;101028.13;5207242;28;20041;-78
2022/07/01 02:37:13;;;;;;;0.45;0.45;;;;;;;16.84;66.88;101023.59;5203940;28;20052;-78
2022/07/01 02:39:43;;;;;;;0.90;0.40;;;;;;;17.00;65.14;101018.47;5204119;28;20116;-78
2022/07/01 02:42:23;;;;;;;0.32;0.32;;;;;;;16.92;66.03;101025.91;5194597;28;20040;-79
2022/07/01 02:44:54;;;;;;;0.20;0.20;;;;;;;17.02;63.91;101052.84;5194691;28;20171;-78
2022/07/01 02:47:30;;;;;;;1.98;1.23;;;;;;;17.13;63.64;101047.88;5164688;28;20688;-78
2022/07/01 02:50:03;;;;;;;1.23;1.13;;;;;;;16.88;65.71;101057.00;5184235;28;20035;-78
2022/07/01 02:52:34;;;;;;;0.47;0.47;;;;;;;16.99;63.59;101057.34;5169279;28;20449;-80
2022/07/01 02:55:12;;;;;;;0.63;0.60;;;;;;;17.02;64.24;101066.09;5200611;28;20368;-77
2022/07/01 02:57:43;;;;;;;2.25;0.98;;;;;;;16.97;63.46;101067.19;5185100;28;20055;-78
2022/07/01 03:00:14;;;;;;;0.52;0.52;;;;;;;16.99;63.75;101070.59;5185353;28;20098;-78
2022/07/01 03:02:45;;;;;;;0.43;0.43;;;;;;;16.80;65.44;101080.34;5184120;28;20394;-78
2022/07/01 03:05:15;;;;;;;0.32;0.32;;;;;;;16.76;65.82;101077.00;5187106;28;20044;-78
2022/07/01 03:07:46;;;;;;;1.08;0.75;;;;;;;16.60;66.17;101074.19;5200946;28;20631;-78
2022/07/01 03:10:16;;;;;;;0.20;0.20;;;;;;;16.63;66.14;101074.06;5212664;28;20044;-78
2022/07/01 03:12:47;;;;;;;0.20;0.20;;;;;;;16.57;66.24;101079.63;5219963;28;20102;-78
2022/07/01 03:15:18;;;;;;;0.57;0.47;;;;;;;16.71;63.82;101086.06;5214524;28;20162;-78
2022/07/01 03:17:49;;;;;;;0.38;0.38;;;;;;;16.72;64.36;101093.09;5207126;28;20060;-78
2022/07/01 03:20:19;;;;;;;0.20;0.20;;;;;;;16.64;64.21;101104.91;5211530;28;24471;-78
2022/07/01 03:22:50;;;;;;;0.50;0.45;;;;;;;16.73;63.96;101103.63;5205044;28;20036;-78
2022/07/01 03:25:21;;;;;;;1.08;0.77;;;;;;;16.65;64.49;101101.31;5184569;28;20088;-78
2022/07/01 03:27:52;;;;;;;0.50;0.50;;;;;;;16.57;65.50;101095.50;5185258;28;20037;-78
2022/07/01 03:30:22;;;;;;;0.40;0.40;;;;;;;16.60;64.37;101094.53;5195164;28;20583;-78
2022/07/01 03:32:53;;;;;;;0.65;0.65;;;;;;;16.73;64.21;101084.22;5190394;28;20128;-78
2022/07/01 03:35:35;;;;;;;0.22;0.22;;;;;;;16.76;63.02;101081.41;5217438;28;20519;-78
2022/07/01 03:38:07;;;;;;;0.20;0.20;;;;;;;16.72;62.83;101083.34;5203836;28;20650;-81
2022/07/01 03:40:39;;;;;;;0.40;0.40;;;;;;;16.74;62.15;101084.16;5211985;28;20029;-81
2022/07/01 03:43:09;;;;;;;0.32;0.32;;;;;;;16.77;62.60;101081.38;5197434;28;20287;-82
2022/07/01 03:45:40;;;;;;;0.40;0.40;;;;;;;16.80;62.19;101080.34;5205387;28;20048;-82
2022/07/01 03:48:11;;;;;;;1.52;0.57;;;;;;;16.79;62.23;101083.94;5190498;28;20025;-82
2022/07/01 03:50:41;;;;;;;0.30;0.30;;;;;;;16.81;62.44;101090.03;5192494;28;20073;-82
2022/07/01 03:56:06;;;;;;;0.40;0.40;;;;;;;16.78;64.09;101088.34;5216865;28;20117;-81
2022/07/01 03:58:37;;;;;;;0.30;0.30;;;;;;;16.81;62.43;101104.13;5204656;28;20044;-81
2022/07/01 04:01:08;;;;;;;0.40;0.40;;;;;;;16.81;61.95;101104.13;5188011;28;20033;-81
2022/07/01 04:03:38;;;;;;;0.85;0.85;;;;;;;16.83;61.83;101106.69;5190875;28;20033;-81
2022/07/01 04:06:09;;;;;;;0.57;0.57;;;;;;;16.82;63.26;101111.13;5213245;28;20028;-82
2022/07/01 04:08:40;;;;;;;0.55;0.55;;;;;;;16.69;64.99;101110.00;5184622;28;20033;-81
2022/07/01 04:11:14;;;;;;;0.52;0.52;;;;;;;16.78;62.74;101108.69;5204806;28;20095;-81
2022/07/01 04:13:50;;;;;;;0.52;0.52;;;;;;;16.71;63.41;101105.47;5185617;28;20028;-82
2022/07/01 04:16:25;;;;;;;0.43;0.43;;;;;;;16.79;63.83;101100.66;5201951;28;20063;-81
2022/07/01 04:18:56;;;;;;;0.52;0.52;;;;;;;16.81;63.09;101101.47;5187334;28;20072;-81
2022/07/01 04:24:18;;;;;;;0.30;0.30;;;;;;;16.74;63.46;101110.63;5201406;28;20433;-81
2022/07/01 04:26:51;;;;;;;0.35;0.35;;;;;;;16.75;63.13;101108.84;5200829;28;20049;-81
2022/07/01 04:29:22;;;;;;;4.65;0.88;;;;;;;16.72;63.75;101114.31;5202415;28;20494;-81
2022/07/01 04:31:53;;;;;;;1.23;0.40;;;;;;;16.61;64.98;101109.50;5198665;28;20061;-82
2022/07/01 04:34:24;;;;;;;0.75;0.63;;;;;;;16.77;63.57;101107.84;5199418;28;20662;-82
2022/07/01 04:36:55;;;;;;;0.38;0.38;;;;;;;16.74;62.28;101089.44;5182553;28;20060;-81
2022/07/01 04:39:26;;;;;;;8.38;0.73;;;;;;;16.59;65.17;101088.34;5185189;28;20039;-81
2022/07/01 04:42:00;;;;;;;0.22;0.22;;;;;;;16.71;64.93;101096.69;5183092;28;20041;-81
2022/07/01 04:44:32;;;;;;;1.55;0.88;;;;;;;16.58;65.20;101096.38;5190840;28;20025;-81
2022/07/01 04:47:04;;;;;;;0.40;0.40;;;;;;;16.51;66.01;101101.09;5198377;28;20037;-81
2022/07/01 04:49:35;;;;;;;1.02;0.95;;;;;;;16.53;65.36;101105.38;5185082;28;20397;-81
2022/07/01 04:52:09;;;;;;;0.68;0.68;;;;;;;16.53;65.66;101105.38;5200789;28;20040;-82
2022/07/01 04:54:40;;;;;;;0.35;0.35;;;;;;;16.46;65.71;101100.47;5183858;28;20446;-82
2022/07/01 04:57:10;;;;;;;0.73;0.73;;;;;;;16.50;65.74;101094.97;5162928;28;20029;-83
2022/07/01 04:59:41;;;;;;;6.75;1.33;;;;;;;16.47;66.48;101094.25;5189233;28;20117;-82
2022/07/01 05:02:12;;;;;;;0.30;0.30;;;;;;;16.42;66.48;101091.81;5211493;28;20076;-82
2022/07/01 05:04:42;;;;;;;0.32;0.32;;;;;;;16.55;64.98;101083.28;5188076;28;20128;-81
2022/07/01 05:07:27;;;;;;;0.50;0.50;;;;;;;16.58;63.62;101086.63;5182902;28;20469;-80
2022/07/01 05:10:01;;;;;;;0.55;0.55;;;;;;;16.59;64.43;101072.47;5201535;28;20033;-79
2022/07/01 05:12:31;;;;;;;0.20;0.20;;;;;;;16.53;64.60;101081.56;5196192;28;20041;-80
2022/07/01 05:15:06;;;;;;;;;;;;;;;16.54;65.20;101077.13;5172518;28;20029;-80
2022/07/01 05:23:15;;;;;;;1.15;0.98;;;;;;;16.49;66.31;101082.63;5193764;28;20098;-79
2022/07/01 05:25:46;;;;;;;2.83;0.47;;;;;;;16.55;65.50;101078.84;5192096;28;20089;-79
2022/07/01 05:28:17;;;;;;;0.50;0.50;;;;;;;16.38;68.05;101084.06;5209073;28;20158;-79
2022/07/01 05:30:48;;;;;;;0.25;0.25;;;;;;;16.46;67.12;101087.22;5223480;28;20041;-79
2022/07/01 05:33:21;;;;;;;0.20;0.20;;;;;;;16.55;66.34;101097.41;5171464;28;20092;-79
2022/07/01 05:35:52;;;;;;;0.30;0.30;;;;;;;16.54;66.93;101093.03;5181551;28;20080;-80
2022/07/01 05:38:23;;;;;;;0.47;0.47;;;;;;;16.52;67.10;101100.16;5176733;28;20453;-80
2022/07/01 05:40:53;;;;;;;0.20;0.20;;;;;;;16.48;67.86;101103.91;5182205;28;20033;-80
2022/07/01 05:43:24;;;;;;;0.43;0.43;;;;;;;16.38;68.28;101106.09;5201725;28;20029;-80
2022/07/01 05:45:55;;;;;;;0.20;0.20;;;;;;;16.55;66.32;101100.03;5204898;28;20032;-80
2022/07/01 05:48:28;;;;;;;0.20;0.20;;;;;;;16.62;65.51;101114.72;5200401;28;20029;-79
2022/07/01 05:50:59;;;;;;;0.30;0.30;;;;;;;16.44;67.82;101113.78;5210108;28;20052;-80
2022/07/01 05:53:29;;;;;;;0.30;0.30;;;;;;;16.42;67.90;101107.69;5223795;28;20154;-80
2022/07/01 05:56:03;;;;;;;2.15;0.82;;;;;;;16.44;67.15;101105.84;5180862;28;20029;-79
2022/07/01 05:58:36;;;;;;;0.57;0.57;;;;;;;16.59;65.53;101101.59;5184472;28;20160;-80
2022/07/01 06:01:08;;;;;;;0.28;0.28;;;;;;;16.46;67.62;101111.06;5185436;28;20046;-79
2022/07/01 06:03:41;;;;;;;0.20;0.20;;;;;;;16.57;65.48;101121.16;5189600;28;20043;-80
2022/07/01 06:06:15;;;;;;;0.40;0.40;;;;;;;16.45;68.08;101112.81;5185511;28;20036;-80
2022/07/01 06:08:46;;;;;;;0.28;0.28;;;;;;;16.51;66.19;101101.09;5187971;28;20065;-79
2022/07/01 06:11:17;;;;;;;0.45;0.45;;;;;;;16.46;67.43;101111.91;5193867;28;20029;-79
2022/07/01 06:13:47;;;;;;;0.75;0.75;;;;;;;16.45;67.15;101120.78;5207052;28;20038;-79
2022/07/01 06:16:18;;;;;;;0.30;0.30;;;;;;;16.49;68.22;101124.13;5188602;28;20492;-79
2022/07/01 06:18:49;;;;;;;2.85;0.95;;;;;;;16.57;67.26;101131.75;5187976;28;20298;-79
2022/07/01 06:21:19;;;;;;;0.98;0.98;;;;;;;16.56;66.65;101125.59;5201857;28;20040;-79
2022/07/01 06:23:53;;;;;;;1.10;0.70;;;;;;;16.56;66.51;101127.38;5189510;28;20531;-80
2022/07/01 06:26:24;;;;;;;0.65;0.65;;;;;;;16.58;67.11;101134.31;5207064;28;20461;-81
2022/07/01 06:28:55;;;;;;;0.65;0.63;;;;;;;16.48;68.56;101144.47;5189323;28;20032;-80
2022/07/01 06:31:26;;;;;;;0.35;0.35;;;;;;;16.43;68.02;101150.91;5201913;28;20049;-80
2022/07/01 06:33:56;;;;;;;0.20;0.20;;;;;;;16.24;70.03;101141.13;5186815;28;20029;-80
2022/07/01 06:36:29;;;;;;;0.65;0.65;;;;;;;16.33;69.64;101140.72;5186711;28;20106;-79
2022/07/01 06:39:00;;;;;;;;;;;;;;;16.38;67.92;101143.16;5197303;28;20017;-79
2022/07/01 06:41:32;;;;;;;9.68;2.00;;;;;;;16.55;67.75;101149.50;5186704;28;20427;-79
2022/07/01 06:44:04;;;;;;;0.35;0.35;;;;;;;16.49;68.81;101158.56;5185342;28;20045;-79
2022/07/01 06:46:35;;;;;;;0.40;0.40;;;;;;;16.57;67.46;101143.19;5168265;28;20048;-79
2022/07/01 06:49:05;;;;;;;0.60;0.60;;;;;;;16.63;67.12;101152.66;5220630;28;20405;-80
2022/07/01 06:51:36;;;;;;;0.80;0.80;;;;;;;16.61;68.00;101150.09;5174972;28;20117;-79
2022/07/01 06:54:10;;;;;;;0.30;0.30;;;;;;;16.66;66.71;101148.06;5193333;28;20124;-79
2022/07/01 06:56:44;;;;;;;3.13;0.52;;;;;;;16.74;66.98;101149.50;5182845;28;20040;-80
2022/07/01 06:59:17;;;;;;;0.43;0.43;;;;;;;16.74;67.79;101165.41;5204686;28;20449;-79
2022/07/01 07:01:49;;;;;;;0.40;0.40;;;;;;;16.62;68.20;101183.59;5208038;28;20108;-82
2022/07/01 07:04:19;;;;;;;0.55;0.55;;;;;;;16.54;67.84;101175.13;5209609;28;20292;-81
2022/07/01 07:06:50;;;;;;;0.40;0.40;;;;;;;16.49;68.32;101182.41;5169123;28;20037;-82
2022/07/01 07:09:20;;;;;;;2.80;0.82;;;;;;;16.47;69.01;101179.84;5179683;28;20257;-80
2022/07/01 07:11:51;;;;;;;0.70;0.70;;;;;;;16.61;67.75;101181.88;5185500;28;20037;-81
2022/07/01 07:14:22;;;;;;;0.30;0.30;;;;;;;16.75;67.41;101172.44;5191743;28;20033;-81
2022/07/01 07:16:54;;;;;;;0.52;0.50;;;;;;;16.67;68.09;101171.00;5169718;28;20080;-81
2022/07/01 07:19:25;;;;;;;1.00;1.00;;;;;;;16.68;68.02;101172.72;5180320;28;20053;-79
2022/07/01 07:21:58;;;;;;;0.50;0.50;;;;;;;16.77;68.34;101175.88;5183423;28;20559;-79
2022/07/01 07:24:28;;;;;;;0.82;0.82;;;;;;;16.89;67.44;101180.63;5184199;28;20710;-79
2022/07/01 07:26:59;;;;;;;1.27;1.20;;;;;;;16.74;68.00;101183.94;5200778;28;20029;-79
2022/07/01 07:29:29;;;;;;;0.52;0.52;;;;;;;16.95;66.65;101180.38;5183468;28;20584;-79
2022/07/01 07:32:00;;;;;;;0.63;0.63;;;;;;;16.83;68.09;101181.75;5169887;28;20037;-79
2022/07/01 07:34:31;;;;;;;0.20;0.20;;;;;;;17.03;66.68;101184.44;5186540;28;20083;-79
2022/07/01 07:37:01;;;;;;;0.70;0.70;;;;;;;17.13;66.15;101183.09;5199679;28;20068;-78
2022/07/01 07:39:32;;;;;;;3.75;0.57;;;;;;;17.22;65.64;101189.72;5181341;28;20032;-79
2022/07/01 07:42:04;;;;;;;0.73;0.73;;;;;;;17.13;66.01;101193.69;5187250;28;20036;-80
2022/07/01 07:44:34;;;;;;;0.50;0.50;;;;;;;17.24;65.42;101201.13;5174136;28;20749;-80
2022/07/01 07:47:05;;;;;;;0.40;0.40;;;;;;;17.15;66.45;101190.03;5191816;28;20033;-81
2022/07/01 07:49:35;;;;;;;0.38;0.38;;;;;;;17.26;65.83;101194.81;5198647;28;20741;-82
2022/07/01 07:52:10;;;;;;;0.30;0.30;;;;;;;17.06;66.13;101198.41;5199763;28;20044;-81
2022/07/01 07:54:41;;;;;;;0.45;0.45;;;;;;;17.21;65.44;101207.44;5201774;28;20029;-80
2022/07/01 07:57:11;;;;;;;0.40;0.40;;;;;;;17.35;65.06;101208.56;5198145;28;20748;-82
2022/07/01 07:59:42;;;;;;;0.43;0.43;;;;;;;17.42;64.87;101204.69;5185031;28;20532;-80
2022/07/01 08:02:14;;;;;;;1.65;1.20;;;;;;;17.22;65.82;101208.28;5177204;28;20119;-80
2022/07/01 08:04:44;;;;;;;0.30;0.30;;;;;;;17.43;64.78;101219.66;5200848;28;20222;-81
2022/07/01 08:07:14;;;;;;;1.02;0.50;;;;;;;17.33;64.99;101221.03;5179246;28;20110;-81
2022/07/01 08:09:47;;;;;;;0.30;0.30;;;;;;;17.34;64.99;101228.94;5209150;28;20139;-81
2022/07/01 08:12:18;;;;;;;0.38;0.38;;;;;;;17.41;64.21;101232.13;5183026;28;20045;-83
2022/07/01 08:14:49;;;;;;;1.20;1.10;;;;;;;17.49;64.31;101216.72;5205744;28;20029;-83
2022/07/01 08:17:19;;;;;;;0.38;0.38;;;;;;;17.43;65.05;101214.38;5184300;28;20068;-80
2022/07/01 08:19:50;;;;;;;4.28;2.25;;;;;;;17.51;64.14;101214.84;5190583;28;20465;-80
2022/07/01 08:22:20;;;;;;;0.30;0.30;;;;;;;17.46;64.49;101220.38;5184360;28;20671;-81
2022/07/01 08:24:51;;;;;;;0.30;0.30;;;;;;;17.47;65.22;101213.31;5170881;28;20059;-84
2022/07/01 08:27:22;;;;;;;0.30;0.30;;;;;;;17.47;64.54;101213.31;5182292;28;20453;-80
2022/07/01 08:29:52;;;;;;;2.83;0.40;;;;;;;17.40;64.74;101223.34;5189346;28;20128;-80
2022/07/01 08:32:26;;;;;;;1.08;0.60;;;;;;;17.35;64.24;101230.66;5197498;28;20041;-82
2022/07/01 08:34:56;;;;;;;;;;;;;;;17.47;63.74;101229.22;5193145;28;20128;-81
2022/07/01 08:37:27;;;;;;;0.20;0.20;;;;;;;17.45;63.59;101225.78;5193019;28;20016;-81
2022/07/01 08:39:59;;;;;;;0.10;0.10;;;;;;;17.38;62.81;101219.03;5202568;28;20025;-83
2022/07/01 08:42:30;;;;;;;1.10;0.65;;;;;;;17.51;63.21;101227.28;5164133;28;20493;-80
2022/07/01 08:45:01;;;;;;;0.20;0.20;;;;;;;17.62;63.16;101228.47;5189106;28;20064;-82
2022/07/01 08:47:52;;;;;;;0.15;0.15;;;;;;;17.66;62.76;101234.50;5201866;28;20466;-81
2022/07/01 08:50:28;;;;;;;0.55;0.55;;;;;;;17.66;62.47;101228.31;5179551;28;20041;-80
2022/07/01 08:52:59;;;;;;;0.30;0.30;;;;;;;17.77;62.70;101244.56;5198566;28;20528;-81
2022/07/01 08:55:30;;;;;;;0.40;0.40;;;;;;;17.90;62.13;101243.03;5215320;28;20115;-83
2022/07/01 08:58:20;;;;;;;0.50;0.50;;;;;;;17.86;62.24;101246.78;5209909;28;20210;-81
2022/07/01 09:00:50;;;;;;;1.98;0.77;;;;;;;18.02;62.12;101259.31;5183609;28;20108;-80
2022/07/01 09:03:23;;;;;;;0.45;0.45;;;;;;;18.06;61.90;101255.56;5207242;28;20100;-83
2022/07/01 09:05:56;;;;;;;0.35;0.35;;;;;;;18.10;61.45;101259.78;5185186;28;20048;-80
2022/07/01 09:08:28;;;;;;;0.30;0.30;;;;;;;18.12;61.31;101268.56;5199234;28;20238;-81
2022/07/01 09:11:13;;;;;;;0.30;0.30;;;;;;;18.20;61.40;101261.06;5186029;28;20164;-80
2022/07/01 09:13:44;;;;;;;0.30;0.30;;;;;;;18.05;60.45;101261.84;5197267;28;20037;-82
2022/07/01 09:16:16;;;;;;;0.45;0.45;;;;;;;18.17;59.77;101269.16;5196846;28;20583;-82
2022/07/01 09:19:01;;;;;;;0.30;0.30;;;;;;;18.19;60.38;101269.06;5185983;28;20039;-81
2022/07/01 09:21:32;;;;;;;0.30;0.30;;;;;;;18.05;58.66;101261.84;5202238;28;20037;-81
2022/07/01 09:24:04;;;;;;;0.20;0.20;;;;;;;18.15;59.01;101256.91;5198708;28;20044;-81
2022/07/01 09:26:39;;;;;;;0.40;0.40;;;;;;;18.28;58.82;101265.13;5187711;28;20239;-80
2022/07/01 09:29:13;;;;;;;0.35;0.25;;;;;;;18.06;57.03;101263.53;5179216;28;20029;-81
2022/07/01 09:31:52;;;;;;;0.80;0.80;;;;;;;18.21;58.24;101262.78;5202024;28;20474;-81
2022/07/01 09:34:23;;;;;;;0.20;0.20;;;;;;;18.27;57.71;101256.28;5204533;28;20303;-81
2022/07/01 09:36:59;;;;;;;0.57;0.57;;;;;;;18.11;57.70;101260.63;5202184;28;20245;-82
2022/07/01 09:39:42;;;;;;;0.90;0.60;;;;;;;18.36;57.78;101260.28;5201564;28;20108;-80
2022/07/01 09:42:26;;;;;;;;;;;;;;;18.47;57.42;101265.88;5183692;28;20056;-80
2022/07/01 09:44:58;;;;;;;0.20;0.20;;;;;;;18.49;57.68;101265.81;5204067;28;19966;-80
2022/07/01 09:47:29;;;;;;;0.20;0.20;;;;;;;18.57;57.07;101271.59;5204665;28;20048;-83
2022/07/01 09:50:02;;;;;;;0.30;0.30;;;;;;;18.52;57.29;101271.81;5197549;28;20439;-81
2022/07/01 09:52:38;;;;;;;0.20;0.20;;;;;;;18.54;57.17;101274.38;5207132;28;20041;-81
2022/07/01 09:55:09;;;;;;;0.32;0.32;;;;;;;18.62;57.02;101271.34;5207059;28;20025;-80
2022/07/01 09:57:40;;;;;;;0.35;0.35;;;;;;;18.59;57.29;101263.53;5175444;28;20148;-80
2022/07/01 10:00:11;;;;;;;0.30;0.30;;;;;;;18.49;57.04;101255.19;5190778;28;20025;-83
2022/07/01 10:02:46;;;;;;;0.20;0.20;;;;;;;18.53;57.65;101268.22;5210111;28;20021;-80
2022/07/01 10:05:23;;;;;;;0.30;0.30;;;;;;;18.69;57.43;101267.44;5209164;28;20044;-82
2022/07/01 10:08:08;;;;;;;0.20;0.20;;;;;;;18.76;57.21;101258.19;5220450;28;20216;-81
2022/07/01 10:11:14;;;;;;;0.32;0.32;;;;;;;18.82;56.84;101263.16;5202007;28;20128;-80
2022/07/01 10:13:45;;;;;;;0.40;0.40;;;;;;;18.77;55.93;101257.25;5219226;28;20128;-81
2022/07/01 10:16:20;;;;;;;0.40;0.40;;;;;;;18.74;56.42;101260.06;5183161;28;20048;-82
2022/07/01 10:18:56;;;;;;;0.30;0.30;;;;;;;18.69;54.92;101254.13;5185206;28;20186;-80
2022/07/01 10:21:29;;;;;;;0.20;0.20;;;;;;;18.80;54.65;101257.06;5169857;28;20328;-81
2022/07/01 10:24:17;;;;;;;0.22;0.22;;;;;;;18.80;52.70;101258.88;5195097;28;20036;-82
2022/07/01 10:26:48;;;;;;;0.30;0.30;;;;;;;18.70;52.25;101259.38;5202918;28;20044;-82
2022/07/01 10:29:29;;;;;;;0.28;0.28;;;;;;;18.80;52.94;101266.84;5184668;28;20035;-84
2022/07/01 10:32:21;;;;;;;0.90;0.35;;;;;;;18.88;53.46;101272.63;5199559;28;20040;-82
2022/07/01 10:35:06;;;;;;;0.20;0.20;;;;;;;18.94;52.44;101260.84;5182036;28;20030;-82
2022/07/01 10:37:59;;;;;;;0.32;0.22;;;;;;;19.02;52.44;101263.94;5185534;28;20564;-80
2022/07/01 10:40:50;;;;;;;0.25;0.25;;;;;;;19.01;52.04;101259.56;5190324;28;20140;-83
2022/07/01 10:43:34;;;;;;;0.30;0.30;;;;;;;19.01;52.69;101256.91;5189662;28;20057;-83
2022/07/01 10:46:08;;;;;;;0.20;0.20;;;;;;;19.09;51.80;101259.16;5187010;28;20069;-81
2022/07/01 10:48:39;;;;;;;0.60;0.60;;;;;;;19.04;51.32;101251.44;5189426;28;20233;-82
2022/07/01 10:51:17;;;;;;;0.38;0.38;;;;;;;19.14;52.06;101257.09;5200907;28;20133;-81
2022/07/01 10:53:48;;;;;;;0.20;0.20;;;;;;;19.22;51.22;101264.63;5157380;28;1277022;-80
2022/07/01 10:56:23;;;;;;;0.20;0.20;;;;;;;19.19;50.97;101261.22;5183501;28;20480;-83
2022/07/01 10:59:01;;;;;;;0.20;0.20;;;;;;;19.28;50.69;101259.84;5218842;28;20036;-79
2022/07/01 11:01:31;;;;;;;0.35;0.35;;;;;;;19.33;50.39;101257.81;5181600;28;20065;-79
2022/07/01 11:04:02;;;;;;;0.20;0.20;;;;;;;19.37;49.35;101258.50;5184996;28;20056;-80
2022/07/01 11:06:38;;;;;;;0.20;0.20;;;;;;;19.38;49.46;101260.19;5166114;28;20037;-81
2022/07/01 11:09:12;;;;;;;0.20;0.20;;;;;;;19.48;49.70;101260.53;5195620;28;20037;-80
2022/07/01 11:11:46;;;;;;;0.20;0.20;;;;;;;19.43;48.06;101254.59;5172270;28;20537;-81
2022/07/01 11:14:19;;;;;;;0.20;0.20;;;;;;;19.47;50.00;101253.50;5181833;28;20182;-80
2022/07/01 11:16:51;;;;;;;0.80;0.73;;;;;;;19.58;49.83;101250.22;5198747;28;20052;-80
2022/07/01 11:19:23;;;;;;;0.20;0.20;;;;;;;19.60;48.72;101251.84;5203141;28;20304;-81
2022/07/01 11:21:55;;;;;;;0.20;0.20;;;;;;;19.54;48.13;101243.38;5195831;28;20366;-82
2022/07/01 11:24:29;;;;;;;0.20;0.20;;;;;;;19.56;47.03;101246.78;5197394;28;20047;-81
2022/07/01 11:27:09;;;;;;;0.25;0.25;;;;;;;19.69;47.19;101253.16;5203099;28;20120;-82
2022/07/01 11:29:40;;;;;;;0.20;0.20;;;;;;;19.72;46.80;101241.47;5170790;28;20083;-83
2022/07/01 11:32:11;;;;;;;0.20;0.20;;;;;;;19.80;47.40;101234.75;5185643;28;20270;-80
2022/07/01 11:34:42;;;;;;;0.70;0.70;;;;;;;19.93;48.36;101247.38;5173547;28;20065;-81
2022/07/01 11:40:13;;;;;;;0.47;0.47;;;;;;;20.03;47.68;101248.56;5184705;28;20036;-83
2022/07/01 11:42:45;;;;;;;0.20;0.20;;;;;;;20.21;48.15;101243.06;5185180;28;20127;-81
2022/07/01 11:45:24;;;;;;;0.45;0.25;;;;;;;20.23;47.61;101235.84;5202588;28;20033;-83
2022/07/01 11:47:54;;;;;;;0.30;0.30;;;;;;;20.25;47.71;101240.13;5201984;28;20032;-81
2022/07/01 11:50:26;;;;;;;0.20;0.20;;;;;;;20.32;47.76;101237.97;5181656;28;20045;-82
2022/07/01 11:52:57;;;;;;;0.40;0.40;;;;;;;20.43;47.63;101232.00;5170249;28;20029;-80
2022/07/01 11:55:28;;;;;;;0.20;0.20;;;;;;;20.41;45.88;101239.25;5182434;28;20384;-81
2022/07/01 11:57:58;;;;;;;0.25;0.25;;;;;;;20.49;45.40;101249.44;5215081;28;20033;-81
2022/07/01 12:00:33;;;;;;;0.20;0.20;;;;;;;20.65;44.61;101242.19;5194067;28;20059;-81
2022/07/01 12:03:06;;;;;;;0.20;0.20;;;;;;;20.69;43.03;101243.75;5185640;28;20025;-83
2022/07/01 12:05:39;;;;;;;0.35;0.35;;;;;;;20.70;43.27;101248.09;5206531;28;20062;-84